createdAt,value
2023-03-22T00:01:27.684Z,9.70
2023-03-22T00:03:54.454Z,9.80
2023-03-22T00:06:21.069Z,9.80
2023-03-22T00:08:51.987Z,9.80
2023-03-22T00:11:21.539Z,10.00
2023-03-22T00:13:48.160Z,9.90
2023-03-22T00:16:15.586Z,9.80
2023-03-22T00:18:42.282Z,9.70
2023-03-22T00:21:13.044Z,9.70
2023-03-22T00:23:39.938Z,9.70
2023-03-22T00:26:07.421Z,9.70
2023-03-22T00:28:34.692Z,9.80
2023-03-22T00:31:02.183Z,9.80
2023-03-22T00:33:30.427Z,9.90
2023-03-22T00:36:02.504Z,9.90
2023-03-22T00:38:41.449Z,9.90
2023-03-22T00:41:17.866Z,9.90
2023-03-22T00:43:45.507Z,9.90
2023-03-22T00:46:14.203Z,9.90
2023-03-22T00:48:41.384Z,9.90
2023-03-22T00:51:09.170Z,9.80
2023-03-22T00:53:36.082Z,9.80
2023-03-22T00:56:03.534Z,9.80
2023-03-22T00:58:30.225Z,9.80
2023-03-22T01:00:56.838Z,9.80
2023-03-22T01:03:23.560Z,9.80
2023-03-22T01:05:52.481Z,9.80
2023-03-22T01:08:19.061Z,9.80
2023-03-22T01:10:45.612Z,9.80
2023-03-22T01:13:13.312Z,9.80
2023-03-22T01:15:40.235Z,9.90
2023-03-22T01:18:07.449Z,9.80
2023-03-22T01:20:34.961Z,9.80
2023-03-22T01:23:01.790Z,9.80
2023-03-22T01:25:28.562Z,9.80
2023-03-22T01:27:55.138Z,9.80
2023-03-22T01:30:21.690Z,9.80
2023-03-22T01:32:48.263Z,9.80
2023-03-22T01:35:14.897Z,9.70
2023-03-22T01:37:42.503Z,9.70
2023-03-22T01:40:12.160Z,9.70
2023-03-22T01:42:38.893Z,9.70
2023-03-22T01:45:48.015Z,9.60
2023-03-22T01:48:29.654Z,9.60
2023-03-22T01:51:22.272Z,9.60
2023-03-22T01:53:52.155Z,9.50
2023-03-22T01:56:21.872Z,9.50
2023-03-22T01:58:49.574Z,9.50
2023-03-22T02:01:16.697Z,9.50
2023-03-22T02:03:57.425Z,9.40
2023-03-22T02:06:25.481Z,9.40
2023-03-22T02:08:52.198Z,9.40
2023-03-22T02:11:29.018Z,9.40
2023-03-22T02:14:15.573Z,9.30
2023-03-22T02:16:57.399Z,9.30
2023-03-22T02:20:00.276Z,9.30
2023-03-22T02:22:51.417Z,9.30
2023-03-22T02:25:42.615Z,9.30
2023-03-22T02:28:34.091Z,9.40
2023-03-22T02:31:38.302Z,9.30
2023-03-22T02:34:22.996Z,9.30
2023-03-22T02:37:14.662Z,9.30
2023-03-22T02:39:48.529Z,9.20
2023-03-22T02:42:26.756Z,9.20
2023-03-22T02:45:17.985Z,9.10
2023-03-22T02:48:01.096Z,9.10
2023-03-22T02:50:50.691Z,9.10
2023-03-22T02:53:42.052Z,9.10
2023-03-22T02:56:20.134Z,9.10
2023-03-22T02:58:50.985Z,9.00
2023-03-22T03:01:28.235Z,9.00
2023-03-22T03:03:58.967Z,9.00
2023-03-22T03:06:30.157Z,9.00
2023-03-22T03:08:58.118Z,8.90
2023-03-22T03:11:25.029Z,8.90
2023-03-22T03:13:51.616Z,8.80
2023-03-22T03:16:22.426Z,8.80
2023-03-22T03:19:25.474Z,8.80
2023-03-22T03:22:08.627Z,8.70
2023-03-22T03:24:38.220Z,8.70
2023-03-22T03:27:16.167Z,8.60
2023-03-22T03:30:15.122Z,8.50
2023-03-22T03:32:54.307Z,8.40
2023-03-22T03:35:24.837Z,8.40
2023-03-22T03:38:00.878Z,8.30
2023-03-22T03:40:33.399Z,8.30
2023-03-22T03:43:03.388Z,8.30
2023-03-22T03:45:30.203Z,8.20
2023-03-22T03:48:03.820Z,8.10
2023-03-22T03:50:30.887Z,8.10
2023-03-22T03:52:57.846Z,8.10
2023-03-22T03:55:26.007Z,8.00
2023-03-22T03:57:52.566Z,7.90
2023-03-22T04:00:19.731Z,7.90
2023-03-22T04:02:46.315Z,7.90
2023-03-22T04:05:13.707Z,7.80
2023-03-22T04:07:40.346Z,7.70
2023-03-22T04:10:07.717Z,7.70
2023-03-22T04:12:34.500Z,7.70
2023-03-22T04:15:01.075Z,7.60
2023-03-22T04:17:27.662Z,7.60
2023-03-22T04:19:54.477Z,7.60
2023-03-22T04:22:21.057Z,7.50
2023-03-22T04:24:47.790Z,7.50
2023-03-22T04:27:14.330Z,7.50
2023-03-22T04:29:40.855Z,7.40
2023-03-22T04:32:07.445Z,7.30
2023-03-22T04:34:33.985Z,7.30
2023-03-22T04:37:00.498Z,7.30
2023-03-22T04:39:27.106Z,7.20
2023-03-22T04:41:53.666Z,7.20
2023-03-22T04:44:20.225Z,7.10
2023-03-22T04:46:46.865Z,7.10
2023-03-22T04:49:13.449Z,7.00
2023-03-22T04:51:40.030Z,7.00
2023-03-22T04:54:06.631Z,6.90
2023-03-22T04:56:33.251Z,6.90
2023-03-22T04:58:59.825Z,6.90
2023-03-22T05:01:26.410Z,6.90
2023-03-22T05:03:52.990Z,6.80
2023-03-22T05:06:19.546Z,6.80
2023-03-22T05:08:46.119Z,6.70
2023-03-22T05:11:15.652Z,6.70
2023-03-22T05:13:42.906Z,6.70
2023-03-22T05:16:10.218Z,6.70
2023-03-22T05:18:37.085Z,6.60
2023-03-22T05:21:04.017Z,6.60
2023-03-22T05:23:30.619Z,6.60
2023-03-22T05:25:57.182Z,6.60
2023-03-22T05:28:24.019Z,6.60
2023-03-22T05:30:50.726Z,6.50
2023-03-22T05:33:17.305Z,6.60
2023-03-22T05:35:43.982Z,6.60
2023-03-22T05:38:10.882Z,6.60
2023-03-22T05:40:38.025Z,6.60
2023-03-22T05:43:04.996Z,6.60
2023-03-22T05:45:31.611Z,6.60
2023-03-22T05:47:58.385Z,6.70
2023-03-22T05:50:25.018Z,6.90
2023-03-22T05:52:51.657Z,6.90
2023-03-22T05:55:18.996Z,7.00
2023-03-22T05:57:46.788Z,7.00
2023-03-22T06:00:16.013Z,7.10
2023-03-22T06:02:47.627Z,7.20
2023-03-22T06:05:16.319Z,7.20
2023-03-22T06:07:43.745Z,7.40
2023-03-22T06:10:14.944Z,7.50
2023-03-22T06:12:42.009Z,7.50
2023-03-22T06:15:09.549Z,7.60
2023-03-22T06:17:36.532Z,7.70
2023-03-22T06:20:04.841Z,7.80
2023-03-22T06:22:31.398Z,7.90
2023-03-22T06:24:57.969Z,8.00
2023-03-22T06:27:24.560Z,8.00
2023-03-22T06:29:51.208Z,8.10
2023-03-22T06:32:17.787Z,8.20
2023-03-22T06:34:44.528Z,8.30
2023-03-22T06:37:11.200Z,8.50
2023-03-22T06:39:37.741Z,8.60
2023-03-22T06:42:04.337Z,8.70
2023-03-22T06:44:30.883Z,8.80
2023-03-22T06:46:57.432Z,8.90
2023-03-22T06:49:24.070Z,9.00
2023-03-22T06:51:50.648Z,9.10
2023-03-22T06:54:17.768Z,9.30
2023-03-22T06:56:44.445Z,9.30
2023-03-22T06:59:10.982Z,9.30
2023-03-22T07:01:37.550Z,9.30
2023-03-22T07:04:04.338Z,9.40
2023-03-22T07:06:31.028Z,9.60
2023-03-22T07:08:57.581Z,9.60
2023-03-22T07:11:24.545Z,9.70
2023-03-22T07:13:51.420Z,9.80
2023-03-22T07:16:20.085Z,9.80
2023-03-22T07:18:46.991Z,9.90
2023-03-22T07:21:13.833Z,10.00
2023-03-22T07:23:40.435Z,10.10
2023-03-22T07:26:07.236Z,10.10
2023-03-22T07:28:33.966Z,10.30
2023-03-22T07:31:03.219Z,10.40
2023-03-22T07:33:29.869Z,10.50
2023-03-22T07:35:56.545Z,10.60
2023-03-22T07:38:23.149Z,10.70
2023-03-22T07:40:52.906Z,10.90
2023-03-22T07:43:19.479Z,11.00
2023-03-22T07:45:46.030Z,11.20
2023-03-22T07:48:12.631Z,11.30
2023-03-22T07:50:39.402Z,11.40
2023-03-22T07:53:06.136Z,11.40
2023-03-22T07:55:32.704Z,11.50
2023-03-22T07:57:59.311Z,11.60
2023-03-22T08:00:25.852Z,11.70
2023-03-22T08:02:52.561Z,11.80
2023-03-22T08:05:19.194Z,11.90
2023-03-22T08:07:45.791Z,12.00
2023-03-22T08:10:12.384Z,12.10
2023-03-22T08:12:38.918Z,12.10
2023-03-22T08:15:06.012Z,12.30
2023-03-22T08:17:32.677Z,12.40
2023-03-22T08:19:59.240Z,12.60
2023-03-22T08:22:25.782Z,12.80
2023-03-22T08:24:52.577Z,12.80
2023-03-22T08:27:19.179Z,12.80
2023-03-22T08:29:45.797Z,12.90
2023-03-22T08:32:12.478Z,12.80
2023-03-22T08:34:42.220Z,13.10
2023-03-22T08:37:10.693Z,13.10
2023-03-22T08:39:37.540Z,13.10
2023-03-22T08:42:04.372Z,13.40
2023-03-22T08:44:31.329Z,13.60
2023-03-22T08:46:58.112Z,13.70
2023-03-22T08:49:24.701Z,13.70
2023-03-22T08:51:51.306Z,13.80
2023-03-22T08:54:18.027Z,14.00
2023-03-22T08:56:44.606Z,14.20
2023-03-22T08:59:11.195Z,14.10
2023-03-22T09:01:37.882Z,14.10
2023-03-22T09:04:04.941Z,14.20
2023-03-22T09:06:31.756Z,14.40
2023-03-22T09:08:58.361Z,14.40
2023-03-22T09:11:24.924Z,14.50
2023-03-22T09:13:51.777Z,14.50
2023-03-22T09:16:18.855Z,14.50
2023-03-22T09:18:45.695Z,14.60
2023-03-22T09:21:12.299Z,14.60
2023-03-22T09:23:39.280Z,14.60
2023-03-22T09:26:08.573Z,14.70
2023-03-22T09:28:35.654Z,15.00
2023-03-22T09:31:08.075Z,15.20
2023-03-22T09:33:35.779Z,15.30
2023-03-22T09:36:02.522Z,15.10
2023-03-22T09:38:29.358Z,15.30
2023-03-22T09:41:00.344Z,15.40
2023-03-22T09:43:33.222Z,15.50
2023-03-22T09:46:00.739Z,15.60
2023-03-22T09:48:31.643Z,15.70
2023-03-22T09:51:01.379Z,15.90
2023-03-22T09:53:31.526Z,15.90
2023-03-22T09:56:15.926Z,16.00
2023-03-22T09:58:56.336Z,16.00
2023-03-22T10:01:43.558Z,16.30
2023-03-22T10:04:43.651Z,16.50
2023-03-22T10:07:37.707Z,16.90
2023-03-22T10:10:16.025Z,17.00
2023-03-22T10:13:14.509Z,17.30
2023-03-22T10:15:59.597Z,17.40
2023-03-22T10:18:48.313Z,17.40
2023-03-22T10:21:17.610Z,17.60
2023-03-22T10:23:50.378Z,17.60
2023-03-22T10:26:24.609Z,17.40
2023-03-22T10:29:03.761Z,17.30
2023-03-22T10:31:31.936Z,17.40
2023-03-22T10:34:07.335Z,17.60
2023-03-22T10:36:36.458Z,17.90
2023-03-22T10:39:22.527Z,18.10
2023-03-22T10:41:50.168Z,18.20
2023-03-22T10:44:19.167Z,18.20
2023-03-22T10:46:48.739Z,18.30
2023-03-22T10:49:30.858Z,18.50
2023-03-22T10:52:05.128Z,18.40
2023-03-22T10:54:32.422Z,18.40
2023-03-22T10:56:58.991Z,18.50
2023-03-22T10:59:46.012Z,18.60
2023-03-22T11:02:28.605Z,18.70
2023-03-22T11:05:00.869Z,18.90
2023-03-22T11:07:43.476Z,19.10
2023-03-22T11:10:10.010Z,18.90
2023-03-22T11:12:40.083Z,18.80
2023-03-22T11:15:17.924Z,18.90
2023-03-22T11:17:44.648Z,19.30
2023-03-22T11:20:17.093Z,19.30
2023-03-22T11:22:45.626Z,19.20
2023-03-22T11:25:28.206Z,19.10
2023-03-22T11:28:09.947Z,19.10
2023-03-22T11:30:37.088Z,19.30
2023-03-22T11:33:22.064Z,19.10
2023-03-22T11:35:55.867Z,19.00
2023-03-22T11:38:41.493Z,19.10
2023-03-22T11:41:23.392Z,19.20
2023-03-22T11:44:00.832Z,19.40
2023-03-22T11:46:28.626Z,19.70
2023-03-22T11:49:01.326Z,19.50
2023-03-22T11:51:30.845Z,19.40
2023-03-22T11:54:17.057Z,19.10
2023-03-22T11:56:47.727Z,19.40
2023-03-22T11:59:25.443Z,19.50
2023-03-22T12:02:24.999Z,19.60
2023-03-22T12:05:01.625Z,19.70
2023-03-22T12:07:30.660Z,19.60
2023-03-22T12:10:21.285Z,19.90
2023-03-22T12:12:58.816Z,19.90
2023-03-22T12:15:40.112Z,19.80
2023-03-22T12:18:19.173Z,19.70
2023-03-22T12:20:53.643Z,19.90
2023-03-22T12:23:21.716Z,20.10
2023-03-22T12:26:00.047Z,19.80
2023-03-22T12:28:42.659Z,19.80
2023-03-22T12:31:27.125Z,19.50
2023-03-22T12:33:56.928Z,19.70
2023-03-22T12:36:48.126Z,19.80
2023-03-22T12:39:25.597Z,20.10
2023-03-22T12:41:55.616Z,20.00
2023-03-22T12:44:22.130Z,20.30
2023-03-22T12:46:50.237Z,20.20
2023-03-22T12:49:46.137Z,20.00
2023-03-22T12:52:28.036Z,19.90
2023-03-22T12:55:00.914Z,19.90
2023-03-22T12:57:27.946Z,20.10
2023-03-22T12:59:57.686Z,20.30
2023-03-22T13:02:32.058Z,20.20
2023-03-22T13:05:05.012Z,20.20
2023-03-22T13:07:49.373Z,20.40
2023-03-22T13:10:30.727Z,20.70
2023-03-22T13:13:12.415Z,21.00
2023-03-22T13:15:42.167Z,21.30
2023-03-22T13:18:55.642Z,21.30
2023-03-22T13:21:27.454Z,21.00
2023-03-22T13:24:06.142Z,20.90
2023-03-22T13:26:48.249Z,21.00
2023-03-22T13:29:20.319Z,21.10
2023-03-22T13:31:53.756Z,21.20
2023-03-22T13:34:30.063Z,21.30
2023-03-22T13:36:57.674Z,21.40
2023-03-22T13:39:24.925Z,21.40
2023-03-22T13:42:22.472Z,21.30
2023-03-22T13:44:55.406Z,21.30
2023-03-22T13:47:37.090Z,21.30
2023-03-22T13:50:17.262Z,21.50
2023-03-22T13:52:52.692Z,21.50
2023-03-22T13:55:57.241Z,21.70
2023-03-22T13:58:52.046Z,21.50
2023-03-22T14:01:45.677Z,21.60
2023-03-22T14:04:16.177Z,21.70
2023-03-22T14:06:59.302Z,21.50
2023-03-22T14:09:33.621Z,21.40
2023-03-22T14:12:18.265Z,21.40
2023-03-22T14:14:50.398Z,21.40
2023-03-22T14:17:42.280Z,21.00
2023-03-22T14:20:16.777Z,20.90
